Flight Track Log - Related Links

Times and Time Zones

All times are in EDT time to prevent confusion due to time zone crossing. See the NSH301 flight status page for this flight to view local times or setup timezone preferences in your user account.

Time Position Orientation Groundspeed Altitude Reporting Facility
EDT Latitude Longitude Course Direction KTS MPH feet Rate Location/Type
Wed 07:21:18 AM 39.3500 -77.3667 264° West 198 228 2,500  Level Potomac TRACON
Wed 07:22:18 AM 39.4000 -77.2833 52° Northeast 228 262 2,500 -450 Level Potomac TRACON
Wed 07:23:18 AM 39.4333 -77.3333 311° West 188 216 1,600 -450 Descending Potomac TRACON
Wed 07:24:18 AM 39.4500 -77.3667 303° West 144 166 1,600  Level Potomac TRACON
Wed 07:26:00 AM 39.4772 -77.1631 264° West  Level FlightAware Approximate
Wed 07:26:18 AM 39.4500 -77.3667 90° East 144 166 1,600  Level Potomac TRACON
Wed 07:28:18 AM 39.4500 -77.3667 90° East 144 166 1,600  Level Potomac TRACON
Wed 07:30:19 AM 39.4500 -77.3667 90° East 144 166 1,600  Level Potomac TRACON
Wed 07:32:19 AM 39.4500 -77.3667 90° East 144 166 1,600  Level Potomac TRACON
Wed 07:34:19 AM 39.4500 -77.3667 90° East 144 166 1,600  Level Potomac TRACON
Wed 07:35:19 AM 39.4500 -77.3667 90° East 144 166 1,600  Level Potomac TRACON
Wed 07:37:20 AM 39.4500 -77.3667 90° East 144 166 1,600  Level Potomac TRACON
Wed 07:39:20 AM 39.4500 -77.3667 90° East 144 166 1,600  Level Potomac TRACON
Wed 07:41:21 AM 39.4500 -77.3667 90° East 144 166 1,600  Level Potomac TRACON
Wed 07:43:21 AM 39.4500 -77.3667 90° East 144 166 1,600  Level Potomac TRACON
Wed 07:45:00 AM 39.4500 -77.5337 270° West  Level FlightAware Approximate
Wed 07:52:00 AM 39.6332 -78.2114 292° West  Level FlightAware Approximate
Wed 07:53:00 AM 39.6623 -78.3078 291° West  Level FlightAware Approximate
Wed 07:54:00 AM 39.6913 -78.4043 291° West  Level FlightAware Approximate
Wed 07:55:00 AM 39.7203 -78.5008 291° West  Level FlightAware Approximate
Wed 07:56:00 AM 39.7492 -78.5974 291° West  Level FlightAware Approximate
Wed 07:57:00 AM 39.7780 -78.6940 291° West  Level FlightAware Approximate
Wed 07:58:00 AM 39.8068 -78.7908 291° West  Level FlightAware Approximate
Wed 07:59:00 AM 39.8355 -78.8876 291° West  Level FlightAware Approximate
Wed 08:00:00 AM 39.8641 -78.9845 291° West  Level FlightAware Approximate
Wed 08:01:00 AM 39.8914 -79.0820 288° West  Level FlightAware Approximate
Wed 08:02:00 AM 39.9160 -79.1808 288° West  Level FlightAware Approximate
Wed 08:03:00 AM 39.9450 -79.2776 291° West  Level FlightAware Approximate
Wed 08:04:00 AM 39.9799 -79.3699 311° West  Level FlightAware Approximate
Wed 08:05:00 AM 40.0268 -79.4537 303° West  Level FlightAware Approximate
Wed 08:06:00 AM 40.0762 -79.5353 309° West  Level FlightAware Approximate
Wed 08:07:00 AM 40.1253 -79.6173 303° West  Level FlightAware Approximate
Wed 08:08:00 AM 40.1789 -79.6941 314° West  Level FlightAware Approximate
Wed 08:09:00 AM 40.2127 -79.7880 294° West  Level FlightAware Approximate
Wed 08:10:00 AM 40.2625 -79.8688 311° West  Level FlightAware Approximate
Wed 08:11:00 AM 40.3131 -79.9495 308° West  Level FlightAware Approximate
Wed 08:12:00 AM 40.3624 -80.0317 308° West  Level FlightAware Approximate
Wed 08:13:00 AM 40.4117 -80.1139 308° West  Level FlightAware Approximate
Wed 08:14:00 AM 40.4647 -80.1918 315° West  Level FlightAware Approximate
Wed 08:15:00 AM 40.4833 -80.2167 315° West  Level FlightAware Approximate

Login

Don't have an account? Register now (free) for customized features, flight alerts, and more!